OPKC/KHI METAR and TAF weather

Enter ICAO airport designator
Station Type Date Time Source
OPKC METAR 2020/04/05 18:55 UTC NOAA

OPKC 051855Z 00000KT 7000 NSC 25/21 Q1012 NOSIG


Station Type Date Time Source
OPKC Decoded METAR 2020/04/05 18:55 UTC NOAA

Karachi Airport, Pakistan (OPKC) 24-54N 067-08E 22M
Apr 05, 2020 - 02:55 PM EDT / 2020.04.05 1855 UTC
Wind: Calm:0
Visibility: 4 mile(s):0
Temperature: 77 F (25 C)
Dew Point: 69 F (21 C)
Relative Humidity: 78%
Pressure (altimeter): 29.88 in. Hg (1012 hPa)
ob: OPKC 051855Z 00000KT 7000 NSC 25/21 Q1012 NOSIG
cycle: 19

Station Type Date Time Source
OPKC TAF 2020/04/05 18:46 UTC NOAA

TAF OPKC 051600Z 0518/0624 26010KT 5000 HZ NSC
TEMPO 0600/0606 28007KT 4000 FU NSC
FM060600 25008G18KT 6000 NSC
BECMG 0617/0619 27010KT 6000 NSC

Example: see airport list